Airfield :
LOGIN :

Register | Disclaimer

   EN    FR    IT 

 










Legend :    VFR   Marginal VFR   IFR   Intensive IFR   Very Intensive IFR
Visi :
Ceiling :
>= 8 km
>= 3000ft
5 to 8 km
1000 to 3000 ft
1500m to 5 km
500 to 1000 ft
800 to 1500m
200 to 500 ft
< 800m
< 200 ft
Symbols :   Thunderstorms  Fog  Heavy snow  Heavy precipitations  Wind > 20 kt
SIGMETs :     Misc.  Thunderstorms  Icing  Turbulence  Mountain Waves  Volcanic Ashes







- Airport Elevation : 100 ft


EBDT - Schaffen

CURRENT METAR :
  • 202025Z AUTO 32004KT 9999 NCD 16/08 Q1027 BLU

EXPIRED METARs :
  • 201955Z AUTO 32006KT 9999 FEW050/// 16/08 Q1026 BLU
  • 201925Z AUTO 31004KT 9999 FEW049/// BKN075/// 17/09 Q1026 BLU
  • 201855Z AUTO 33005KT 9999 SCT050/// BKN080/// BKN095/// 17/09 Q1026 BLU
  • 201825Z AUTO 33005KT 9999 FEW060/// 18/10 Q1025 BLU
  • 201755Z AUTO 32006KT 9999 SCT055/// 19/10 Q1025 BLU
  • 201725Z AUTO 30006KT 9999 FEW090/// 21/09 Q1025 BLU

TAF TAF EBDT
Valid from the 20 at 19:00 until the 21 at 07:00 UTC


201541Z 2019/2107 25003KT 9999 FEW035
PROB30
TEMPO 2104/2106 5000 BR SCT010
No reported NOTAMs for that airfield.



MET'MAP, your aeronautical weather chart ! - Copyright ORBIFLY December 2007 - Disclaimer

ORBIFLY MET'MAP TEAM :

Programming & Development : Alexandra Zaïnal
Concept & Development : Baudouin d'Aumeries
Co-Development & Prog : Marc-Olivier Méhu
Technical & hardware support : Manuel Goepfert

Contact : metmap@orbifly.com




SOURCES & CREDITS :

   NOAA